Nancy Mcallister — WDI3971 — position and weather

sailwx.info

Track history (hours):
 
Tides and Currents Weather Stations Pressure Air Temp Water Temp Dewpoint Dewpoint Depression Visibility Wind Speed Wind Dir Waves Ship Positions

Nancy Mcallister

Owner: McAllister Towing & Transportation Company Inc., Staten Island, NY. More information available from US FCC via Universal Licensing System and Coast Guard Vessel Documentation Center.

Last reported at 2017-Oct-20 16:00 UTC. Time now 2017-Oct-20 16:18 UTC.
Position N 36°50' W 076°17'.

Length 40 m; draft 5 m.

Type: Towing. MMSI: 367693850.

Date/timePositionNaut miles runAvg speedWind from/ knotsBaromVisibWave heightAir tempDewpointWater temp
2017-Oct-20 16:00N 36°50' W 076°17'3 6.1
2017-Oct-20 15:28N 36°53' W 076°20'1 1.4
2017-Oct-20 15:00N 36°52' W 076°21'0 0.0
2017-Oct-20 14:00N 36°52' W 076°21'3 5.4
2017-Oct-20 13:30N 36°51' W 076°18'1 1.9
2017-Oct-20 13:01N 36°50' W 076°17'0 0.0
2017-Oct-20 12:30N 36°50' W 076°17'0 0.0
2017-Oct-20 12:00N 36°50' W 076°17'0 0.0
2017-Oct-20 11:30N 36°50' W 076°17'0 0.0
2017-Oct-20 11:00N 36°50' W 076°17'0 0.0
2017-Oct-20 10:30N 36°50' W 076°17'0 0.0
2017-Oct-20 10:00N 36°50' W 076°17'0 0.0
2017-Oct-20 09:31N 36°50' W 076°17'0 0.0
2017-Oct-20 09:00N 36°50' W 076°17'0 0.0
2017-Oct-20 08:30N 36°50' W 076°17'0 0.0
2017-Oct-20 08:01N 36°50' W 076°17'0 0.0
2017-Oct-20 07:30N 36°50' W 076°17'0 0.0
2017-Oct-20 07:01N 36°50' W 076°17'0 0.0
2017-Oct-20 06:30N 36°50' W 076°17'0 0.0
2017-Oct-20 06:00N 36°50' W 076°17'0 0.0
2017-Oct-20 05:30N 36°50' W 076°17'0 0.0
2017-Oct-20 05:00N 36°50' W 076°17'0 0.0
2017-Oct-20 04:31N 36°50' W 076°17'0 0.0
2017-Oct-20 04:00N 36°50' W 076°17'0 0.0
2017-Oct-20 03:30N 36°50' W 076°17'0 0.0
2017-Oct-20 03:00N 36°50' W 076°17'0 0.0
2017-Oct-20 02:31N 36°50' W 076°17'0 0.0
2017-Oct-20 02:00N 36°50' W 076°17'0 0.0
2017-Oct-20 01:30N 36°50' W 076°17'0 0.0
2017-Oct-20 01:00N 36°50' W 076°17'0 0.0
2017-Oct-19 21:53N 36°50' W 076°17'0 1.1
2017-Oct-19 21:31N 36°51' W 076°18'12 6.1
2017-Oct-19 19:29N 36°58' W 076°05'12 1.6
2017-Oct-19 11:48N 36°56' W 076°20'310.8
2017-Oct-19 11:30N 36°53' W 076°20'3 6.4
2017-Oct-19 11:01N 36°50' W 076°17'0 0.0
2017-Oct-19 10:30N 36°50' W 076°17'0 0.0
2017-Oct-19 10:01N 36°50' W 076°17'0 0.0
2017-Oct-19 09:30N 36°50' W 076°17'0 0.0
2017-Oct-19 09:01N 36°50' W 076°17'0 0.0
2017-Oct-19 08:30N 36°50' W 076°17'0 0.0
2017-Oct-19 08:00N 36°50' W 076°17'0 0.0
2017-Oct-19 07:30N 36°50' W 076°17'0 0.0
2017-Oct-19 07:00N 36°50' W 076°17'0 0.0
2017-Oct-19 06:31N 36°50' W 076°17'0 0.0
2017-Oct-19 06:00N 36°50' W 076°17'0 0.0
2017-Oct-19 05:30N 36°50' W 076°17'0 0.0
2017-Oct-19 05:00N 36°50' W 076°17'0 0.0
2017-Oct-19 04:30N 36°50' W 076°17'0 0.0
2017-Oct-19 04:00N 36°50' W 076°17'0 0.0
2017-Oct-19 03:30N 36°50' W 076°17'0 0.0
2017-Oct-19 03:00N 36°50' W 076°17'0 0.0
2017-Oct-19 02:30N 36°50' W 076°17'0 0.0
2017-Oct-19 02:00N 36°50' W 076°17'0 0.0
2017-Oct-19 01:30N 36°50' W 076°17'0 0.0
2017-Oct-19 01:00N 36°50' W 076°17'0 0.0
2017-Oct-19 00:30N 36°50' W 076°17'0 0.0
2017-Oct-19 00:00N 36°50' W 076°17'0 0.0
2017-Oct-18 23:30N 36°50' W 076°17'0 0.0
2017-Oct-18 23:00N 36°50' W 076°17'0 0.0
2017-Oct-18 22:30N 36°50' W 076°17'0 0.0
2017-Oct-18 22:00N 36°50' W 076°17'0 0.0
2017-Oct-18 21:30N 36°50' W 076°17'0 0.0
2017-Oct-18 21:00N 36°50' W 076°17'0 0.0
2017-Oct-18 20:30N 36°50' W 076°17'0 0.0
2017-Oct-18 20:00N 36°50' W 076°17'0 0.0
2017-Oct-18 19:30N 36°50' W 076°17'0 0.0
2017-Oct-18 19:00N 36°50' W 076°17'0 0.0
2017-Oct-18 18:30N 36°50' W 076°17'0 0.0
2017-Oct-18 18:00N 36°50' W 076°17'0 0.0
2017-Oct-18 17:30N 36°50' W 076°17'0 0.0
2017-Oct-18 17:00N 36°50' W 076°17'1 1.6
2017-Oct-18 16:30N 36°51' W 076°18'3 0.6
2017-Oct-18 11:27N 36°53' W 076°20'4 8.0
2017-Oct-18 10:59N 36°50' W 076°18'0 0.2
2017-Oct-18 10:30N 36°50' W 076°17'0 0.0
2017-Oct-18 09:33N 36°50' W 076°17'0 0.0
2017-Oct-18 09:26N 36°50' W 076°17'0 0.0
2017-Oct-18 08:52N 36°50' W 076°17'0 0.0
2017-Oct-18 08:24N 36°50' W 076°17'0 0.0
2017-Oct-18 07:57N 36°50' W 076°17'0 0.0
2017-Oct-18 07:29N 36°50' W 076°17'0 0.0
2017-Oct-18 07:00N 36°50' W 076°17'0 0.0
2017-Oct-18 06:27N 36°50' W 076°17'0 0.0
2017-Oct-18 06:00N 36°50' W 076°17'0 0.0
2017-Oct-18 05:27N 36°50' W 076°17'0 0.0
2017-Oct-18 04:59N 36°50' W 076°17'0 0.0
2017-Oct-18 04:22N 36°50' W 076°17'0 0.0
2017-Oct-18 03:00N 36°50' W 076°17'0 0.0
2017-Oct-18 02:24N 36°50' W 076°17'0 0.0
2017-Oct-18 01:20N 36°50' W 076°17'0 0.0
2017-Oct-18 00:53N 36°50' W 076°17'0 0.0
2017-Oct-18 00:21N 36°50' W 076°17'0 0.0
2017-Oct-17 23:56N 36°50' W 076°17'0 0.0
2017-Oct-17 23:26N 36°50' W 076°17'0 0.0
2017-Oct-17 22:48N 36°50' W 076°17'0 0.0
2017-Oct-17 22:24N 36°50' W 076°17'0 0.0
2017-Oct-17 21:48N 36°50' W 076°17'0 0.0
2017-Oct-17 21:25N 36°50' W 076°17'0 0.0
2017-Oct-17 20:49N 36°50' W 076°17'0 0.0
2017-Oct-17 20:24N 36°50' W 076°17'0 0.0
2017-Oct-17 20:00N 36°50' W 076°17'0 0.0
2017-Oct-17 19:29N 36°50' W 076°17'0 0.0
2017-Oct-17 18:58N 36°50' W 076°17'0 0.0
2017-Oct-17 18:19N 36°50' W 076°17'0 0.0
2017-Oct-17 17:42N 36°50' W 076°17'0 0.0
2017-Oct-17 17:27N 36°50' W 076°17'0 0.0
2017-Oct-17 16:15N 36°50' W 076°17'0 0.0
2017-Oct-17 15:11N 36°50' W 076°17'0 0.0
2017-Oct-17 14:50N 36°50' W 076°17'0 0.0
2017-Oct-17 13:29N 36°50' W 076°17'0 0.0
2017-Oct-17 12:27N 36°50' W 076°17'5 2.0
2017-Oct-17 10:03N 36°55' W 076°20'112.8
2017-Oct-17 09:56N 36°53' W 076°20'4 7.7
2017-Oct-17 09:29N 36°50' W 076°17'0 0.0
2017-Oct-17 08:33N 36°50' W 076°17'0 0.0
2017-Oct-17 08:24N 36°50' W 076°17'0 0.0
2017-Oct-17 08:00N 36°50' W 076°17'0 0.0
2017-Oct-17 07:30N 36°50' W 076°17'0 0.0
2017-Oct-17 07:00N 36°50' W 076°17'0 0.0
2017-Oct-17 06:30N 36°50' W 076°17'0 0.0
2017-Oct-17 06:00N 36°50' W 076°17'0 0.0
2017-Oct-17 05:30N 36°50' W 076°17'0 0.0
2017-Oct-17 05:00N 36°50' W 076°17'0 0.0
2017-Oct-17 04:30N 36°50' W 076°17'0 0.0
2017-Oct-17 04:00N 36°50' W 076°17'0 0.0
2017-Oct-17 03:30N 36°50' W 076°17'0 0.0
2017-Oct-17 03:00N 36°50' W 076°17'0 0.0
2017-Oct-17 02:30N 36°50' W 076°17'0 0.0
2017-Oct-17 02:00N 36°50' W 076°17'0 0.0
2017-Oct-17 01:30N 36°50' W 076°17'0 0.0
2017-Oct-17 01:00N 36°50' W 076°17'0 0.0
2017-Oct-17 00:30N 36°50' W 076°17'0 0.0
2017-Oct-17 00:00N 36°50' W 076°17'0 0.0
2017-Oct-16 23:30N 36°50' W 076°17'0 0.0
2017-Oct-16 23:00N 36°50' W 076°17'0 0.0
2017-Oct-16 22:30N 36°50' W 076°17'0 0.0
2017-Oct-16 22:00N 36°50' W 076°17'0 0.0
2017-Oct-16 21:30N 36°50' W 076°17'0 0.0
2017-Oct-16 21:00N 36°50' W 076°17'0 0.0
2017-Oct-16 20:30N 36°50' W 076°17'0 0.0
2017-Oct-16 20:00N 36°50' W 076°17'0 0.0
2017-Oct-16 19:30N 36°50' W 076°17'0 0.0
2017-Oct-16 19:00N 36°50' W 076°17'0 0.0
2017-Oct-16 18:30N 36°50' W 076°17'0 0.0
2017-Oct-16 18:00N 36°50' W 076°17'0 0.0
2017-Oct-16 17:30N 36°50' W 076°17'0 0.0
2017-Oct-16 17:00N 36°50' W 076°17'0 0.0
2017-Oct-16 16:30N 36°50' W 076°17'0 0.0
2017-Oct-16 16:00N 36°50' W 076°17'0 0.0
2017-Oct-16 15:30N 36°50' W 076°17'0 0.0
2017-Oct-16 15:00N 36°50' W 076°17'0 0.0
2017-Oct-16 14:30N 36°50' W 076°17'0 0.0
2017-Oct-16 13:30N 36°50' W 076°17'0 0.0
2017-Oct-16 13:00N 36°50' W 076°17'0 0.0
2017-Oct-16 12:30N 36°50' W 076°17'0 0.0
2017-Oct-16 12:01N 36°50' W 076°17'0 0.0
2017-Oct-16 11:30N 36°50' W 076°17'0 0.0
2017-Oct-16 11:00N 36°50' W 076°17'0 0.0
2017-Oct-16 10:30N 36°50' W 076°17'0 0.0
2017-Oct-16 10:00N 36°50' W 076°17'0 0.0
2017-Oct-16 09:30N 36°50' W 076°17'0 0.0
2017-Oct-16 09:01N 36°50' W 076°17'0 0.0
2017-Oct-16 08:30N 36°50' W 076°17'0 0.0
2017-Oct-16 08:00N 36°50' W 076°17'0 0.0
2017-Oct-16 07:30N 36°50' W 076°17'0 0.0
2017-Oct-16 07:00N 36°50' W 076°17'0 0.0
2017-Oct-16 06:30N 36°50' W 076°17'0 0.0
2017-Oct-16 06:00N 36°50' W 076°17'0 0.0
2017-Oct-16 05:30N 36°50' W 076°17'0 0.0
2017-Oct-16 05:00N 36°50' W 076°17'0 0.0
2017-Oct-16 04:30N 36°50' W 076°17'0 0.0
2017-Oct-16 04:00N 36°50' W 076°17'0 0.0
2017-Oct-16 03:31N 36°50' W 076°17'0 0.0
2017-Oct-16 03:00N 36°50' W 076°17'0 0.0
2017-Oct-16 02:30N 36°50' W 076°17'0 0.0
2017-Oct-16 02:00N 36°50' W 076°17'0 0.0
2017-Oct-16 01:30N 36°50' W 076°17'0 0.0
2017-Oct-16 01:00N 36°50' W 076°17'0 0.0
2017-Oct-16 00:30N 36°50' W 076°17'0 0.0
2017-Oct-16 00:00N 36°50' W 076°17'0 0.0
2017-Oct-15 23:30N 36°50' W 076°17'0 0.0
2017-Oct-15 23:00N 36°50' W 076°17'0 0.0
2017-Oct-15 22:30N 36°50' W 076°17'0 0.0
2017-Oct-15 22:00N 36°50' W 076°17'0 0.0
2017-Oct-15 21:30N 36°50' W 076°17'0 0.0
2017-Oct-15 21:00N 36°50' W 076°17'0 0.0
2017-Oct-15 20:30N 36°50' W 076°17'0 0.0
2017-Oct-15 20:00N 36°50' W 076°17'0 0.0
2017-Oct-15 19:30N 36°50' W 076°17'0 0.0
2017-Oct-15 15:47N 36°50' W 076°17'0 0.0
2017-Oct-15 15:30N 36°50' W 076°17'0 0.0
2017-Oct-15 15:00N 36°50' W 076°17'0 0.0
2017-Oct-15 14:00N 36°50' W 076°17'0 0.0
2017-Oct-15 13:30N 36°50' W 076°17'0 0.0
2017-Oct-15 06:39N 36°50' W 076°17'0 0.0
2017-Oct-15 06:30N 36°50' W 076°17'0 0.0
2017-Oct-15 06:00N 36°50' W 076°17'0 0.0
2017-Oct-15 05:30N 36°50' W 076°17'0 0.0
2017-Oct-15 05:00N 36°50' W 076°17'0 0.0
2017-Oct-15 04:31N 36°50' W 076°17'0 0.0
2017-Oct-15 04:00N 36°50' W 076°17'0 0.0
2017-Oct-15 03:30N 36°50' W 076°17'0 0.0
2017-Oct-15 03:01N 36°50' W 076°17'0 0.0
2017-Oct-15 02:30N 36°50' W 076°17'0 0.0
2017-Oct-15 02:00N 36°50' W 076°17'0 0.0
2017-Oct-15 01:31N 36°50' W 076°17'0 0.0
2017-Oct-15 01:00N 36°50' W 076°17'0 0.0
2017-Oct-15 00:30N 36°50' W 076°17'0 0.0
2017-Oct-15 00:00N 36°50' W 076°17'0 0.0
2017-Oct-14 21:34N 36°50' W 076°17'0 0.1
2017-Oct-14 21:30N 36°50' W 076°17'0 0.0
2017-Oct-14 21:00N 36°50' W 076°17'0 0.0
2017-Oct-14 20:30N 36°50' W 076°17'0 0.0
2017-Oct-14 20:00N 36°50' W 076°17'0 0.0
2017-Oct-14 19:30N 36°50' W 076°17'0 0.0
2017-Oct-14 19:00N 36°50' W 076°17'0 0.0
2017-Oct-14 18:30N 36°50' W 076°17'0 0.0
2017-Oct-14 18:01N 36°50' W 076°17'4 7.0
2017-Oct-14 17:29N 36°53' W 076°21'0 0.1
2017-Oct-14 17:00N 36°53' W 076°21'1 1.4
2017-Oct-14 16:30N 36°53' W 076°20'2 4.3
2017-Oct-14 16:00N 36°55' W 076°20'1 2.4
2017-Oct-14 15:30N 36°54' W 076°20'3 5.1
2017-Oct-14 15:00N 36°51' W 076°19'2 3.2
2017-Oct-14 14:30N 36°50' W 076°17'0 0.0
2017-Oct-14 14:00N 36°50' W 076°17'0 0.0
2017-Oct-14 13:30N 36°50' W 076°17'0 0.0
2017-Oct-14 13:00N 36°50' W 076°17'0 0.0
2017-Oct-14 12:30N 36°50' W 076°17'0 0.0
2017-Oct-14 12:00N 36°50' W 076°17'0 0.0
2017-Oct-14 11:30N 36°50' W 076°17'0 0.0
2017-Oct-14 11:00N 36°50' W 076°17'0 0.0
2017-Oct-14 10:30N 36°50' W 076°17'0 0.0
2017-Oct-14 10:00N 36°50' W 076°17'0 0.0
2017-Oct-14 09:30N 36°50' W 076°17'0 0.0
2017-Oct-14 09:00N 36°50' W 076°17'0 0.0
2017-Oct-14 08:30N 36°50' W 076°17'0 0.0
2017-Oct-14 08:00N 36°50' W 076°17'0 0.0
2017-Oct-14 07:30N 36°50' W 076°17'0 0.0
2017-Oct-14 07:00N 36°50' W 076°17'0 0.0
2017-Oct-14 06:30N 36°50' W 076°17'0 0.0
2017-Oct-14 06:00N 36°50' W 076°17'0 0.0
2017-Oct-14 05:30N 36°50' W 076°17'0 0.0
2017-Oct-14 05:00N 36°50' W 076°17'0 0.0
2017-Oct-14 04:30N 36°50' W 076°17'0 0.0
2017-Oct-14 04:00N 36°50' W 076°17'0 0.0
2017-Oct-14 03:30N 36°50' W 076°17'0 0.0
2017-Oct-14 03:00N 36°50' W 076°17'0 0.0
2017-Oct-14 02:30N 36°50' W 076°17'0 0.0
2017-Oct-14 02:00N 36°50' W 076°17'0 0.0
2017-Oct-14 01:30N 36°50' W 076°17'0 0.0
2017-Oct-14 00:57N 36°50' W 076°17'0 0.0
2017-Oct-14 00:25N 36°50' W 076°17'0 0.0
2017-Oct-13 23:58N 36°50' W 076°17'0 0.0
2017-Oct-13 23:24N 36°50' W 076°17'0 0.0
2017-Oct-13 23:00N 36°50' W 076°17'0 0.0
2017-Oct-13 22:30N 36°50' W 076°17'0 0.0
2017-Oct-13 22:00N 36°50' W 076°17'0 0.0
2017-Oct-13 21:31N 36°50' W 076°17'0 0.0
2017-Oct-13 21:00N 36°50' W 076°17'0 0.0
2017-Oct-13 20:30N 36°50' W 076°17'0 0.0
2017-Oct-13 20:00N 36°50' W 076°17'0 0.0
2017-Oct-13 19:30N 36°50' W 076°17'0 0.0
2017-Oct-13 19:00N 36°50' W 076°17'0 0.0
2017-Oct-13 18:30N 36°50' W 076°17'0 0.0
2017-Oct-13 18:00N 36°50' W 076°17'0 0.0
2017-Oct-13 17:30N 36°50' W 076°17'0 0.2
2017-Oct-13 17:00N 36°50' W 076°17'0 0.2
2017-Oct-13 16:30N 36°50' W 076°17'0 0.0
2017-Oct-13 16:00N 36°50' W 076°17'0 0.0
2017-Oct-13 15:30N 36°50' W 076°17'0 0.0
2017-Oct-13 15:00N 36°50' W 076°17'0 0.0
2017-Oct-13 14:30N 36°50' W 076°17'0 0.0
2017-Oct-13 14:00N 36°50' W 076°17'0 0.0
2017-Oct-13 13:31N 36°50' W 076°17'0 0.0
2017-Oct-13 13:00N 36°50' W 076°17'0 0.0
2017-Oct-13 12:30N 36°50' W 076°17'0 0.0
2017-Oct-13 12:00N 36°50' W 076°17'0 0.0
2017-Oct-13 11:30N 36°50' W 076°17'0 0.0
2017-Oct-13 11:00N 36°50' W 076°17'0 0.0
2017-Oct-13 10:30N 36°50' W 076°17'0 0.0
2017-Oct-13 10:00N 36°50' W 076°17'0 0.0
2017-Oct-13 09:30N 36°50' W 076°17'0 0.0
2017-Oct-13 09:01N 36°50' W 076°17'0 0.0
2017-Oct-13 08:30N 36°50' W 076°17'0 0.0
2017-Oct-13 08:00N 36°50' W 076°17'0 0.0
2017-Oct-13 07:30N 36°50' W 076°17'0 0.0
2017-Oct-13 07:00N 36°50' W 076°17'0 0.0
2017-Oct-13 06:30N 36°50' W 076°17'0 0.0
2017-Oct-13 06:00N 36°50' W 076°17'0 0.0
2017-Oct-13 05:30N 36°50' W 076°17'0 0.0
2017-Oct-13 05:00N 36°50' W 076°17'0 0.0
2017-Oct-13 04:30N 36°50' W 076°17'0 0.0
2017-Oct-13 04:00N 36°50' W 076°17'0 0.0
2017-Oct-13 03:30N 36°50' W 076°17'0 0.0
2017-Oct-13 02:53N 36°50' W 076°17'0 0.0
2017-Oct-13 02:30N 36°50' W 076°17'0 0.0
2017-Oct-13 02:00N 36°50' W 076°17'0 0.0
2017-Oct-13 01:31N 36°50' W 076°17'0 0.0
2017-Oct-13 01:01N 36°50' W 076°17'0 0.0
2017-Oct-13 00:30N 36°50' W 076°17'0 0.0
2017-Oct-13 00:00N 36°50' W 076°17'0 0.0
2017-Oct-12 23:30N 36°50' W 076°17'0 0.0
2017-Oct-12 23:00N 36°50' W 076°17'0 0.0
2017-Oct-12 22:31N 36°50' W 076°17'0 0.0
2017-Oct-12 22:00N 36°50' W 076°17'0 0.0
2017-Oct-12 21:30N 36°50' W 076°17'0 0.6
2017-Oct-12 21:00N 36°51' W 076°17'0 0.6
2017-Oct-12 20:30N 36°50' W 076°17'0 0.0
2017-Oct-12 20:00N 36°50' W 076°17'0 0.0
2017-Oct-12 19:30N 36°50' W 076°17'0 0.0
2017-Oct-12 19:00N 36°50' W 076°17'0 0.0
2017-Oct-12 18:30N 36°50' W 076°17'0 0.0
2017-Oct-12 18:00N 36°50' W 076°17'0 0.0
2017-Oct-12 17:30N 36°50' W 076°17'0 0.2
2017-Oct-12 17:00N 36°50' W 076°17'0 0.3
2017-Oct-12 16:30N 36°50' W 076°17'0 0.0
2017-Oct-12 16:00N 36°50' W 076°17'0 0.0
2017-Oct-12 15:30N 36°50' W 076°17'0 0.0
2017-Oct-12 15:00N 36°50' W 076°17'0 0.0
2017-Oct-12 14:30N 36°50' W 076°17'0 0.0
2017-Oct-12 14:00N 36°50' W 076°17'0 0.0
2017-Oct-12 13:30N 36°50' W 076°17'0 0.0
2017-Oct-12 13:00N 36°50' W 076°17'0 0.0
2017-Oct-12 12:30N 36°50' W 076°17'0 0.0
2017-Oct-12 12:00N 36°50' W 076°17'0 0.0
2017-Oct-12 11:30N 36°50' W 076°17'0 0.0
2017-Oct-12 11:00N 36°50' W 076°17'0 0.0
2017-Oct-12 10:30N 36°50' W 076°17'0 0.0
2017-Oct-12 10:00N 36°50' W 076°17'0 0.0
2017-Oct-12 09:31N 36°50' W 076°17'0 0.0
2017-Oct-12 08:59N 36°50' W 076°17'0 0.0
2017-Oct-12 08:30N 36°50' W 076°17'0 0.0
2017-Oct-12 08:00N 36°50' W 076°17'0 0.0
2017-Oct-12 07:30N 36°50' W 076°17'0 0.0
2017-Oct-12 06:59N 36°50' W 076°17'0 0.0
2017-Oct-12 06:30N 36°50' W 076°17'0 0.0
2017-Oct-11 22:48N 36°50' W 076°17'0 0.0
2017-Oct-11 22:30N 36°50' W 076°17'0 0.0
2017-Oct-11 21:54N 36°50' W 076°17'0 0.0
2017-Oct-11 21:30N 36°50' W 076°17'0 0.0
2017-Oct-11 20:57N 36°50' W 076°17'0 0.0
2017-Oct-11 20:23N 36°50' W 076°17'0 0.0
2017-Oct-11 19:59N 36°50' W 076°17'0 0.0
2017-Oct-11 19:25N 36°50' W 076°17'0 0.0
2017-Oct-11 19:00N 36°50' W 076°17'0 0.0
2017-Oct-11 18:30N 36°50' W 076°17'0 0.0
2017-Oct-11 17:55N 36°50' W 076°17'0 0.0
2017-Oct-11 17:30N 36°50' W 076°17'0 0.0
2017-Oct-11 17:00N 36°50' W 076°17'0 0.0
2017-Oct-11 00:00N 36°50' W 076°17'0 0.0
2017-Oct-10 23:30N 36°50' W 076°17'0 0.0
2017-Oct-10 23:00N 36°50' W 076°17'0 0.0
2017-Oct-10 22:29N 36°50' W 076°17'0 0.0
2017-Oct-10 22:00N 36°50' W 076°17'0 0.0
2017-Oct-10 21:30N 36°50' W 076°17'0 0.0
2017-Oct-10 21:00N 36°50' W 076°17'0 0.0
2017-Oct-10 20:24N 36°50' W 076°17'0 0.0
2017-Oct-10 20:00N 36°50' W 076°17'0 0.0
2017-Oct-10 19:30N 36°50' W 076°17'0 0.0
2017-Oct-10 19:00N 36°50' W 076°17'0 0.0
2017-Oct-10 18:30N 36°50' W 076°17'0 0.0
2017-Oct-10 17:59N 36°50' W 076°17'0 0.0
2017-Oct-10 17:25N 36°50' W 076°17'0 0.0
2017-Oct-10 16:55N 36°50' W 076°17'0 0.0
2017-Oct-10 16:19N 36°50' W 076°17'  
Track history (hours):
 
Tides and Currents Weather Stations Pressure Air Temp Water Temp Dewpoint Dewpoint Depression Visibility Wind Speed Wind Dir Waves Ship Positions

Nancy Mcallister

Owner: McAllister Towing & Transportation Company Inc., Staten Island, NY. More information available from US FCC via Universal Licensing System and Coast Guard Vessel Documentation Center.

Last reported at 2017-Oct-20 16:00 UTC. Time now 2017-Oct-20 16:18 UTC.
Position N 36°50' W 076°17'.

Length 40 m; draft 5 m.

Type: Towing. MMSI: 367693850.

Date/timePositionNaut miles runAvg speedWind from/ knotsBaromVisibWave heightAir tempDewpointWater temp
2017-Oct-20 16:00N 36°50' W 076°17'3 6.1
2017-Oct-20 15:28N 36°53' W 076°20'1 1.4
2017-Oct-20 15:00N 36°52' W 076°21'0 0.0
2017-Oct-20 14:00N 36°52' W 076°21'3 5.4
2017-Oct-20 13:30N 36°51' W 076°18'1 1.9
2017-Oct-20 13:01N 36°50' W 076°17'0 0.0
2017-Oct-20 12:30N 36°50' W 076°17'0 0.0
2017-Oct-20 12:00N 36°50' W 076°17'0 0.0
2017-Oct-20 11:30N 36°50' W 076°17'0 0.0
2017-Oct-20 11:00N 36°50' W 076°17'0 0.0
2017-Oct-20 10:30N 36°50' W 076°17'0 0.0
2017-Oct-20 10:00N 36°50' W 076°17'0 0.0
2017-Oct-20 09:31N 36°50' W 076°17'0 0.0
2017-Oct-20 09:00N 36°50' W 076°17'0 0.0
2017-Oct-20 08:30N 36°50' W 076°17'0 0.0
2017-Oct-20 08:01N 36°50' W 076°17'0 0.0
2017-Oct-20 07:30N 36°50' W 076°17'0 0.0
2017-Oct-20 07:01N 36°50' W 076°17'0 0.0
2017-Oct-20 06:30N 36°50' W 076°17'0 0.0
2017-Oct-20 06:00N 36°50' W 076°17'0 0.0
2017-Oct-20 05:30N 36°50' W 076°17'0 0.0
2017-Oct-20 05:00N 36°50' W 076°17'0 0.0
2017-Oct-20 04:31N 36°50' W 076°17'0 0.0
2017-Oct-20 04:00N 36°50' W 076°17'0 0.0
2017-Oct-20 03:30N 36°50' W 076°17'0 0.0
2017-Oct-20 03:00N 36°50' W 076°17'0 0.0
2017-Oct-20 02:31N 36°50' W 076°17'0 0.0
2017-Oct-20 02:00N 36°50' W 076°17'0 0.0
2017-Oct-20 01:30N 36°50' W 076°17'0 0.0
2017-Oct-20 01:00N 36°50' W 076°17'0 0.0
2017-Oct-19 21:53N 36°50' W 076°17'0 1.1
2017-Oct-19 21:31N 36°51' W 076°18'12 6.1
2017-Oct-19 19:29N 36°58' W 076°05'12 1.6
2017-Oct-19 11:48N 36°56' W 076°20'310.8
2017-Oct-19 11:30N 36°53' W 076°20'3 6.4
2017-Oct-19 11:01N 36°50' W 076°17'0 0.0
2017-Oct-19 10:30N 36°50' W 076°17'0 0.0
2017-Oct-19 10:01N 36°50' W 076°17'0 0.0
2017-Oct-19 09:30N 36°50' W 076°17'0 0.0
2017-Oct-19 09:01N 36°50' W 076°17'0 0.0
2017-Oct-19 08:30N 36°50' W 076°17'0 0.0
2017-Oct-19 08:00N 36°50' W 076°17'0 0.0
2017-Oct-19 07:30N 36°50' W 076°17'0 0.0
2017-Oct-19 07:00N 36°50' W 076°17'0 0.0
2017-Oct-19 06:31N 36°50' W 076°17'0 0.0
2017-Oct-19 06:00N 36°50' W 076°17'0 0.0
2017-Oct-19 05:30N 36°50' W 076°17'0 0.0
2017-Oct-19 05:00N 36°50' W 076°17'0 0.0
2017-Oct-19 04:30N 36°50' W 076°17'0 0.0
2017-Oct-19 04:00N 36°50' W 076°17'0 0.0
2017-Oct-19 03:30N 36°50' W 076°17'0 0.0
2017-Oct-19 03:00N 36°50' W 076°17'0 0.0
2017-Oct-19 02:30N 36°50' W 076°17'0 0.0
2017-Oct-19 02:00N 36°50' W 076°17'0 0.0
2017-Oct-19 01:30N 36°50' W 076°17'0 0.0
2017-Oct-19 01:00N 36°50' W 076°17'0 0.0
2017-Oct-19 00:30N 36°50' W 076°17'0 0.0
2017-Oct-19 00:00N 36°50' W 076°17'0 0.0
2017-Oct-18 23:30N 36°50' W 076°17'0 0.0
2017-Oct-18 23:00N 36°50' W 076°17'0 0.0
2017-Oct-18 22:30N 36°50' W 076°17'0 0.0
2017-Oct-18 22:00N 36°50' W 076°17'0 0.0
2017-Oct-18 21:30N 36°50' W 076°17'0 0.0
2017-Oct-18 21:00N 36°50' W 076°17'0 0.0
2017-Oct-18 20:30N 36°50' W 076°17'0 0.0
2017-Oct-18 20:00N 36°50' W 076°17'0 0.0
2017-Oct-18 19:30N 36°50' W 076°17'0 0.0
2017-Oct-18 19:00N 36°50' W 076°17'0 0.0
2017-Oct-18 18:30N 36°50' W 076°17'0 0.0
2017-Oct-18 18:00N 36°50' W 076°17'0 0.0
2017-Oct-18 17:30N 36°50' W 076°17'0 0.0
2017-Oct-18 17:00N 36°50' W 076°17'1 1.6
2017-Oct-18 16:30N 36°51' W 076°18'3 0.6
2017-Oct-18 11:27N 36°53' W 076°20'4 8.0
2017-Oct-18 10:59N 36°50' W 076°18'0 0.2
2017-Oct-18 10:30N 36°50' W 076°17'0 0.0
2017-Oct-18 09:33N 36°50' W 076°17'0 0.0
2017-Oct-18 09:26N 36°50' W 076°17'0 0.0
2017-Oct-18 08:52N 36°50' W 076°17'0 0.0
2017-Oct-18 08:24N 36°50' W 076°17'0 0.0
2017-Oct-18 07:57N 36°50' W 076°17'0 0.0
2017-Oct-18 07:29N 36°50' W 076°17'0 0.0
2017-Oct-18 07:00N 36°50' W 076°17'0 0.0
2017-Oct-18 06:27N 36°50' W 076°17'0 0.0
2017-Oct-18 06:00N 36°50' W 076°17'0 0.0
2017-Oct-18 05:27N 36°50' W 076°17'0 0.0
2017-Oct-18 04:59N 36°50' W 076°17'0 0.0
2017-Oct-18 04:22N 36°50' W 076°17'0 0.0
2017-Oct-18 03:00N 36°50' W 076°17'0 0.0
2017-Oct-18 02:24N 36°50' W 076°17'0 0.0
2017-Oct-18 01:20N 36°50' W 076°17'0 0.0
2017-Oct-18 00:53N 36°50' W 076°17'0 0.0
2017-Oct-18 00:21N 36°50' W 076°17'0 0.0
2017-Oct-17 23:56N 36°50' W 076°17'0 0.0
2017-Oct-17 23:26N 36°50' W 076°17'0 0.0
2017-Oct-17 22:48N 36°50' W 076°17'0 0.0
2017-Oct-17 22:24N 36°50' W 076°17'0 0.0
2017-Oct-17 21:48N 36°50' W 076°17'0 0.0
2017-Oct-17 21:25N 36°50' W 076°17'0 0.0
2017-Oct-17 20:49N 36°50' W 076°17'0 0.0
2017-Oct-17 20:24N 36°50' W 076°17'0 0.0
2017-Oct-17 20:00N 36°50' W 076°17'0 0.0
2017-Oct-17 19:29N 36°50' W 076°17'0 0.0
2017-Oct-17 18:58N 36°50' W 076°17'0 0.0
2017-Oct-17 18:19N 36°50' W 076°17'0 0.0
2017-Oct-17 17:42N 36°50' W 076°17'0 0.0
2017-Oct-17 17:27N 36°50' W 076°17'0 0.0
2017-Oct-17 16:15N 36°50' W 076°17'0 0.0
2017-Oct-17 15:11N 36°50' W 076°17'0 0.0
2017-Oct-17 14:50N 36°50' W 076°17'0 0.0
2017-Oct-17 13:29N 36°50' W 076°17'0 0.0
2017-Oct-17 12:27N 36°50' W 076°17'5 2.0
2017-Oct-17 10:03N 36°55' W 076°20'112.8
2017-Oct-17 09:56N 36°53' W 076°20'4 7.7
2017-Oct-17 09:29N 36°50' W 076°17'0 0.0
2017-Oct-17 08:33N 36°50' W 076°17'0 0.0
2017-Oct-17 08:24N 36°50' W 076°17'0 0.0
2017-Oct-17 08:00N 36°50' W 076°17'0 0.0
2017-Oct-17 07:30N 36°50' W 076°17'0 0.0
2017-Oct-17 07:00N 36°50' W 076°17'0 0.0
2017-Oct-17 06:30N 36°50' W 076°17'0 0.0
2017-Oct-17 06:00N 36°50' W 076°17'0 0.0
2017-Oct-17 05:30N 36°50' W 076°17'0 0.0
2017-Oct-17 05:00N 36°50' W 076°17'0 0.0
2017-Oct-17 04:30N 36°50' W 076°17'0 0.0
2017-Oct-17 04:00N 36°50' W 076°17'0 0.0
2017-Oct-17 03:30N 36°50' W 076°17'0 0.0
2017-Oct-17 03:00N 36°50' W 076°17'0 0.0
2017-Oct-17 02:30N 36°50' W 076°17'0 0.0
2017-Oct-17 02:00N 36°50' W 076°17'0 0.0
2017-Oct-17 01:30N 36°50' W 076°17'0 0.0
2017-Oct-17 01:00N 36°50' W 076°17'0 0.0
2017-Oct-17 00:30N 36°50' W 076°17'0 0.0
2017-Oct-17 00:00N 36°50' W 076°17'0 0.0
2017-Oct-16 23:30N 36°50' W 076°17'0 0.0
2017-Oct-16 23:00N 36°50' W 076°17'0 0.0
2017-Oct-16 22:30N 36°50' W 076°17'0 0.0
2017-Oct-16 22:00N 36°50' W 076°17'0 0.0
2017-Oct-16 21:30N 36°50' W 076°17'0 0.0
2017-Oct-16 21:00N 36°50' W 076°17'0 0.0
2017-Oct-16 20:30N 36°50' W 076°17'0 0.0
2017-Oct-16 20:00N 36°50' W 076°17'0 0.0
2017-Oct-16 19:30N 36°50' W 076°17'0 0.0
2017-Oct-16 19:00N 36°50' W 076°17'0 0.0
2017-Oct-16 18:30N 36°50' W 076°17'0 0.0
2017-Oct-16 18:00N 36°50' W 076°17'0 0.0
2017-Oct-16 17:30N 36°50' W 076°17'0 0.0
2017-Oct-16 17:00N 36°50' W 076°17'0 0.0
2017-Oct-16 16:30N 36°50' W 076°17'0 0.0
2017-Oct-16 16:00N 36°50' W 076°17'0 0.0
2017-Oct-16 15:30N 36°50' W 076°17'0 0.0
2017-Oct-16 15:00N 36°50' W 076°17'0 0.0
2017-Oct-16 14:30N 36°50' W 076°17'0 0.0
2017-Oct-16 13:30N 36°50' W 076°17'0 0.0
2017-Oct-16 13:00N 36°50' W 076°17'0 0.0
2017-Oct-16 12:30N 36°50' W 076°17'0 0.0
2017-Oct-16 12:01N 36°50' W 076°17'0 0.0
2017-Oct-16 11:30N 36°50' W 076°17'0 0.0
2017-Oct-16 11:00N 36°50' W 076°17'0 0.0
2017-Oct-16 10:30N 36°50' W 076°17'0 0.0
2017-Oct-16 10:00N 36°50' W 076°17'0 0.0
2017-Oct-16 09:30N 36°50' W 076°17'0 0.0
2017-Oct-16 09:01N 36°50' W 076°17'0 0.0
2017-Oct-16 08:30N 36°50' W 076°17'0 0.0
2017-Oct-16 08:00N 36°50' W 076°17'0 0.0
2017-Oct-16 07:30N 36°50' W 076°17'0 0.0
2017-Oct-16 07:00N 36°50' W 076°17'0 0.0
2017-Oct-16 06:30N 36°50' W 076°17'0 0.0
2017-Oct-16 06:00N 36°50' W 076°17'0 0.0
2017-Oct-16 05:30N 36°50' W 076°17'0 0.0
2017-Oct-16 05:00N 36°50' W 076°17'0 0.0
2017-Oct-16 04:30N 36°50' W 076°17'0 0.0
2017-Oct-16 04:00N 36°50' W 076°17'0 0.0
2017-Oct-16 03:31N 36°50' W 076°17'0 0.0
2017-Oct-16 03:00N 36°50' W 076°17'0 0.0
2017-Oct-16 02:30N 36°50' W 076°17'0 0.0
2017-Oct-16 02:00N 36°50' W 076°17'0 0.0
2017-Oct-16 01:30N 36°50' W 076°17'0 0.0
2017-Oct-16 01:00N 36°50' W 076°17'0 0.0
2017-Oct-16 00:30N 36°50' W 076°17'0 0.0
2017-Oct-16 00:00N 36°50' W 076°17'0 0.0
2017-Oct-15 23:30N 36°50' W 076°17'0 0.0
2017-Oct-15 23:00N 36°50' W 076°17'0 0.0
2017-Oct-15 22:30N 36°50' W 076°17'0 0.0
2017-Oct-15 22:00N 36°50' W 076°17'0 0.0
2017-Oct-15 21:30N 36°50' W 076°17'0 0.0
2017-Oct-15 21:00N 36°50' W 076°17'0 0.0
2017-Oct-15 20:30N 36°50' W 076°17'0 0.0
2017-Oct-15 20:00N 36°50' W 076°17'0 0.0
2017-Oct-15 19:30N 36°50' W 076°17'0 0.0
2017-Oct-15 15:47N 36°50' W 076°17'0 0.0
2017-Oct-15 15:30N 36°50' W 076°17'0 0.0
2017-Oct-15 15:00N 36°50' W 076°17'0 0.0
2017-Oct-15 14:00N 36°50' W 076°17'0 0.0
2017-Oct-15 13:30N 36°50' W 076°17'0 0.0
2017-Oct-15 06:39N 36°50' W 076°17'0 0.0
2017-Oct-15 06:30N 36°50' W 076°17'0 0.0
2017-Oct-15 06:00N 36°50' W 076°17'0 0.0
2017-Oct-15 05:30N 36°50' W 076°17'0 0.0
2017-Oct-15 05:00N 36°50' W 076°17'0 0.0
2017-Oct-15 04:31N 36°50' W 076°17'0 0.0
2017-Oct-15 04:00N 36°50' W 076°17'0 0.0
2017-Oct-15 03:30N 36°50' W 076°17'0 0.0
2017-Oct-15 03:01N 36°50' W 076°17'0 0.0
2017-Oct-15 02:30N 36°50' W 076°17'0 0.0
2017-Oct-15 02:00N 36°50' W 076°17'0 0.0
2017-Oct-15 01:31N 36°50' W 076°17'0 0.0
2017-Oct-15 01:00N 36°50' W 076°17'0 0.0
2017-Oct-15 00:30N 36°50' W 076°17'0 0.0
2017-Oct-15 00:00N 36°50' W 076°17'0 0.0
2017-Oct-14 21:34N 36°50' W 076°17'0 0.1
2017-Oct-14 21:30N 36°50' W 076°17'0 0.0
2017-Oct-14 21:00N 36°50' W 076°17'0 0.0
2017-Oct-14 20:30N 36°50' W 076°17'0 0.0
2017-Oct-14 20:00N 36°50' W 076°17'0 0.0
2017-Oct-14 19:30N 36°50' W 076°17'0 0.0
2017-Oct-14 19:00N 36°50' W 076°17'0 0.0
2017-Oct-14 18:30N 36°50' W 076°17'0 0.0
2017-Oct-14 18:01N 36°50' W 076°17'4 7.0
2017-Oct-14 17:29N 36°53' W 076°21'0 0.1
2017-Oct-14 17:00N 36°53' W 076°21'1 1.4
2017-Oct-14 16:30N 36°53' W 076°20'2 4.3
2017-Oct-14 16:00N 36°55' W 076°20'1 2.4
2017-Oct-14 15:30N 36°54' W 076°20'3 5.1
2017-Oct-14 15:00N 36°51' W 076°19'2 3.2
2017-Oct-14 14:30N 36°50' W 076°17'0 0.0
2017-Oct-14 14:00N 36°50' W 076°17'0 0.0
2017-Oct-14 13:30N 36°50' W 076°17'0 0.0
2017-Oct-14 13:00N 36°50' W 076°17'0 0.0
2017-Oct-14 12:30N 36°50' W 076°17'0 0.0
2017-Oct-14 12:00N 36°50' W 076°17'0 0.0
2017-Oct-14 11:30N 36°50' W 076°17'0 0.0
2017-Oct-14 11:00N 36°50' W 076°17'0 0.0
2017-Oct-14 10:30N 36°50' W 076°17'0 0.0
2017-Oct-14 10:00N 36°50' W 076°17'0 0.0
2017-Oct-14 09:30N 36°50' W 076°17'0 0.0
2017-Oct-14 09:00N 36°50' W 076°17'0 0.0
2017-Oct-14 08:30N 36°50' W 076°17'0 0.0
2017-Oct-14 08:00N 36°50' W 076°17'0 0.0
2017-Oct-14 07:30N 36°50' W 076°17'0 0.0
2017-Oct-14 07:00N 36°50' W 076°17'0 0.0
2017-Oct-14 06:30N 36°50' W 076°17'0 0.0
2017-Oct-14 06:00N 36°50' W 076°17'0 0.0
2017-Oct-14 05:30N 36°50' W 076°17'0 0.0
2017-Oct-14 05:00N 36°50' W 076°17'0 0.0
2017-Oct-14 04:30N 36°50' W 076°17'0 0.0
2017-Oct-14 04:00N 36°50' W 076°17'0 0.0
2017-Oct-14 03:30N 36°50' W 076°17'0 0.0
2017-Oct-14 03:00N 36°50' W 076°17'0 0.0
2017-Oct-14 02:30N 36°50' W 076°17'0 0.0
2017-Oct-14 02:00N 36°50' W 076°17'0 0.0
2017-Oct-14 01:30N 36°50' W 076°17'0 0.0
2017-Oct-14 00:57N 36°50' W 076°17'0 0.0
2017-Oct-14 00:25N 36°50' W 076°17'0 0.0
2017-Oct-13 23:58N 36°50' W 076°17'0 0.0
2017-Oct-13 23:24N 36°50' W 076°17'0 0.0
2017-Oct-13 23:00N 36°50' W 076°17'0 0.0
2017-Oct-13 22:30N 36°50' W 076°17'0 0.0
2017-Oct-13 22:00N 36°50' W 076°17'0 0.0
2017-Oct-13 21:31N 36°50' W 076°17'0 0.0
2017-Oct-13 21:00N 36°50' W 076°17'0 0.0
2017-Oct-13 20:30N 36°50' W 076°17'0 0.0
2017-Oct-13 20:00N 36°50' W 076°17'0 0.0
2017-Oct-13 19:30N 36°50' W 076°17'0 0.0
2017-Oct-13 19:00N 36°50' W 076°17'0 0.0
2017-Oct-13 18:30N 36°50' W 076°17'0 0.0
2017-Oct-13 18:00N 36°50' W 076°17'0 0.0
2017-Oct-13 17:30N 36°50' W 076°17'0 0.2
2017-Oct-13 17:00N 36°50' W 076°17'0 0.2
2017-Oct-13 16:30N 36°50' W 076°17'0 0.0
2017-Oct-13 16:00N 36°50' W 076°17'0 0.0
2017-Oct-13 15:30N 36°50' W 076°17'0 0.0
2017-Oct-13 15:00N 36°50' W 076°17'0 0.0
2017-Oct-13 14:30N 36°50' W 076°17'0 0.0
2017-Oct-13 14:00N 36°50' W 076°17'0 0.0
2017-Oct-13 13:31N 36°50' W 076°17'0 0.0
2017-Oct-13 13:00N 36°50' W 076°17'0 0.0
2017-Oct-13 12:30N 36°50' W 076°17'0 0.0
2017-Oct-13 12:00N 36°50' W 076°17'0 0.0
2017-Oct-13 11:30N 36°50' W 076°17'0 0.0
2017-Oct-13 11:00N 36°50' W 076°17'0 0.0
2017-Oct-13 10:30N 36°50' W 076°17'0 0.0
2017-Oct-13 10:00N 36°50' W 076°17'0 0.0
2017-Oct-13 09:30N 36°50' W 076°17'0 0.0
2017-Oct-13 09:01N 36°50' W 076°17'0 0.0
2017-Oct-13 08:30N 36°50' W 076°17'0 0.0
2017-Oct-13 08:00N 36°50' W 076°17'0 0.0
2017-Oct-13 07:30N 36°50' W 076°17'0 0.0
2017-Oct-13 07:00N 36°50' W 076°17'0 0.0
2017-Oct-13 06:30N 36°50' W 076°17'0 0.0
2017-Oct-13 06:00N 36°50' W 076°17'0 0.0
2017-Oct-13 05:30N 36°50' W 076°17'0 0.0
2017-Oct-13 05:00N 36°50' W 076°17'0 0.0
2017-Oct-13 04:30N 36°50' W 076°17'0 0.0
2017-Oct-13 04:00N 36°50' W 076°17'0 0.0
2017-Oct-13 03:30N 36°50' W 076°17'0 0.0
2017-Oct-13 02:53N 36°50' W 076°17'0 0.0
2017-Oct-13 02:30N 36°50' W 076°17'0 0.0
2017-Oct-13 02:00N 36°50' W 076°17'0 0.0
2017-Oct-13 01:31N 36°50' W 076°17'0 0.0
2017-Oct-13 01:01N 36°50' W 076°17'0 0.0
2017-Oct-13 00:30N 36°50' W 076°17'0 0.0
2017-Oct-13 00:00N 36°50' W 076°17'0 0.0
2017-Oct-12 23:30N 36°50' W 076°17'0 0.0
2017-Oct-12 23:00N 36°50' W 076°17'0 0.0
2017-Oct-12 22:31N 36°50' W 076°17'0 0.0
2017-Oct-12 22:00N 36°50' W 076°17'0 0.0
2017-Oct-12 21:30N 36°50' W 076°17'0 0.6
2017-Oct-12 21:00N 36°51' W 076°17'0 0.6
2017-Oct-12 20:30N 36°50' W 076°17'0 0.0
2017-Oct-12 20:00N 36°50' W 076°17'0 0.0
2017-Oct-12 19:30N 36°50' W 076°17'0 0.0
2017-Oct-12 19:00N 36°50' W 076°17'0 0.0
2017-Oct-12 18:30N 36°50' W 076°17'0 0.0
2017-Oct-12 18:00N 36°50' W 076°17'0 0.0
2017-Oct-12 17:30N 36°50' W 076°17'0 0.2
2017-Oct-12 17:00N 36°50' W 076°17'0 0.3
2017-Oct-12 16:30N 36°50' W 076°17'0 0.0
2017-Oct-12 16:00N 36°50' W 076°17'0 0.0
2017-Oct-12 15:30N 36°50' W 076°17'0 0.0
2017-Oct-12 15:00N 36°50' W 076°17'0 0.0
2017-Oct-12 14:30N 36°50' W 076°17'0 0.0
2017-Oct-12 14:00N 36°50' W 076°17'0 0.0
2017-Oct-12 13:30N 36°50' W 076°17'0 0.0
2017-Oct-12 13:00N 36°50' W 076°17'0 0.0
2017-Oct-12 12:30N 36°50' W 076°17'0 0.0
2017-Oct-12 12:00N 36°50' W 076°17'0 0.0
2017-Oct-12 11:30N 36°50' W 076°17'0 0.0
2017-Oct-12 11:00N 36°50' W 076°17'0 0.0
2017-Oct-12 10:30N 36°50' W 076°17'0 0.0
2017-Oct-12 10:00N 36°50' W 076°17'0 0.0
2017-Oct-12 09:31N 36°50' W 076°17'0 0.0
2017-Oct-12 08:59N 36°50' W 076°17'0 0.0
2017-Oct-12 08:30N 36°50' W 076°17'0 0.0
2017-Oct-12 08:00N 36°50' W 076°17'0 0.0
2017-Oct-12 07:30N 36°50' W 076°17'0 0.0
2017-Oct-12 06:59N 36°50' W 076°17'0 0.0
2017-Oct-12 06:30N 36°50' W 076°17'0 0.0
2017-Oct-11 22:48N 36°50' W 076°17'0 0.0
2017-Oct-11 22:30N 36°50' W 076°17'0 0.0
2017-Oct-11 21:54N 36°50' W 076°17'0 0.0
2017-Oct-11 21:30N 36°50' W 076°17'0 0.0
2017-Oct-11 20:57N 36°50' W 076°17'0 0.0
2017-Oct-11 20:23N 36°50' W 076°17'0 0.0
2017-Oct-11 19:59N 36°50' W 076°17'0 0.0
2017-Oct-11 19:25N 36°50' W 076°17'0 0.0
2017-Oct-11 19:00N 36°50' W 076°17'0 0.0
2017-Oct-11 18:30N 36°50' W 076°17'0 0.0
2017-Oct-11 17:55N 36°50' W 076°17'0 0.0
2017-Oct-11 17:30N 36°50' W 076°17'0 0.0
2017-Oct-11 17:00N 36°50' W 076°17'0 0.0
2017-Oct-11 00:00N 36°50' W 076°17'0 0.0
2017-Oct-10 23:30N 36°50' W 076°17'0 0.0
2017-Oct-10 23:00N 36°50' W 076°17'0 0.0
2017-Oct-10 22:29N 36°50' W 076°17'0 0.0
2017-Oct-10 22:00N 36°50' W 076°17'0 0.0
2017-Oct-10 21:30N 36°50' W 076°17'0 0.0
2017-Oct-10 21:00N 36°50' W 076°17'0 0.0
2017-Oct-10 20:24N 36°50' W 076°17'0 0.0
2017-Oct-10 20:00N 36°50' W 076°17'0 0.0
2017-Oct-10 19:30N 36°50' W 076°17'0 0.0
2017-Oct-10 19:00N 36°50' W 076°17'0 0.0
2017-Oct-10 18:30N 36°50' W 076°17'0 0.0
2017-Oct-10 17:59N 36°50' W 076°17'0 0.0
2017-Oct-10 17:25N 36°50' W 076°17'0 0.0
2017-Oct-10 16:55N 36°50' W 076°17'0 0.0
2017-Oct-10 16:19N 36°50' W 076°17'  

Dump ship's entire track history